sensor_id;sensor_type;location;lat;lon;timestamp;P1;durP1;ratioP1;P2;durP2;ratioP2
85046;SDS011;75377;47.908;7.708;2024-01-15T00:02:09;47.5;;;26.3;;
85046;SDS011;75377;47.908;7.708;2024-01-15T00:07:09;44.1;;;24.8;;
85046;SDS011;75377;47.908;7.708;2024-01-15T00:12:09;39.5;;;22.4;;
85046;SDS011;75377;47.908;7.708;2024-01-15T00:17:09;40.5;;;23.0;;
85046;SDS011;75377;47.908;7.708;2024-01-15T00:22:09;40.1;;;21.2;;
85046;SDS011;75377;47.908;7.708;2024-01-15T00:27:09;36.6;;;19.9;;
85046;SDS011;75377;47.908;7.708;2024-01-15T00:32:20;44.4;;;23.1;;
85046;SDS011;75377;47.908;7.708;2024-01-15T00:37:09;40.7;;;22.2;;
85046;SDS011;75377;47.908;7.708;2024-01-15T00:42:09;43.6;;;22.0;;
85046;SDS011;75377;47.908;7.708;2024-01-15T00:47:09;43.3;;;23.4;;
85046;SDS011;75377;47.908;7.708;2024-01-15T00:52:09;43.4;;;23.6;;
85046;SDS011;75377;47.908;7.708;2024-01-15T00:57:09;43.8;;;21.5;;
85046;SDS011;75377;47.908;7.708;2024-01-15T01:02:09;48.7;;;23.1;;
85046;SDS011;75377;47.908;7.708;2024-01-15T01:07:09;48.1;;;25.1;;
85046;SDS011;75377;47.908;7.708;2024-01-15T01:12:09;39.5;;;21.5;;
85046;SDS011;75377;47.908;7.708;2024-01-15T01:17:09;42.1;;;21.9;;
85046;SDS011;75377;47.908;7.708;2024-01-15T01:22:09;48.4;;;23.8;;
85046;SDS011;75377;47.908;7.708;2024-01-15T01:27:09;42.1;;;21.7;;
85046;SDS011;75377;47.908;7.708;2024-01-15T01:32:09;41.4;;;22.0;;
85046;SDS011;75377;47.908;7.708;2024-01-15T01:37:09;40.4;;;21.3;;
85046;SDS011;75377;47.908;7.708;2024-01-15T01:42:09;40.4;;;20.9;;
85046;SDS011;75377;47.908;7.708;2024-01-15T01:47:09;42.8;;;20.2;;
85046;SDS011;75377;47.908;7.708;2024-01-15T01:52:09;39.1;;;19.7;;
85046;SDS011;75377;47.908;7.708;2024-01-15T01:57:09;39.2;;;19.6;;
85046;SDS011;75377;47.908;7.708;2024-01-15T02:02:09;34.3;;;18.9;;
85046;SDS011;75377;47.908;7.708;2024-01-15T02:07:09;34.4;;;18.6;;
85046;SDS011;75377;47.908;7.708;2024-01-15T02:12:09;38.7;;;20.5;;
85046;SDS011;75377;47.908;7.708;2024-01-15T02:17:09;42.9;;;21.3;;
85046;SDS011;75377;47.908;7.708;2024-01-15T02:22:09;47.1;;;23.1;;
85046;SDS011;75377;47.908;7.708;2024-01-15T02:27:09;48.8;;;22.8;;
85046;SDS011;75377;47.908;7.708;2024-01-15T02:32:09;50.9;;;23.2;;
85046;SDS011;75377;47.908;7.708;2024-01-15T02:37:09;50.7;;;25.7;;
85046;SDS011;75377;47.908;7.708;2024-01-15T02:42:09;50.6;;;23.8;;
85046;SDS011;75377;47.908;7.708;2024-01-15T02:47:09;46.1;;;22.9;;
85046;SDS011;75377;47.908;7.708;2024-01-15T02:52:09;45.2;;;21.7;;
85046;SDS011;75377;47.908;7.708;2024-01-15T02:57:09;43.4;;;21.2;;
85046;SDS011;75377;47.908;7.708;2024-01-15T03:02:09;43.1;;;21.2;;
85046;SDS011;75377;47.908;7.708;2024-01-15T03:07:09;38.1;;;19.2;;
85046;SDS011;75377;47.908;7.708;2024-01-15T03:12:09;39.0;;;19.3;;
85046;SDS011;75377;47.908;7.708;2024-01-15T03:17:09;42.4;;;18.9;;
85046;SDS011;75377;47.908;7.708;2024-01-15T03:22:10;36.6;;;18.6;;
85046;SDS011;75377;47.908;7.708;2024-01-15T03:27:09;36.8;;;16.6;;
85046;SDS011;75377;47.908;7.708;2024-01-15T03:32:09;32.7;;;16.5;;
85046;SDS011;75377;47.908;7.708;2024-01-15T03:37:09;32.7;;;14.9;;
85046;SDS011;75377;47.908;7.708;2024-01-15T03:42:09;32.6;;;15.9;;
85046;SDS011;75377;47.908;7.708;2024-01-15T03:47:09;32.6;;;16.6;;
85046;SDS011;75377;47.908;7.708;2024-01-15T03:52:09;35.5;;;19.1;;
85046;SDS011;75377;47.908;7.708;2024-01-15T03:57:09;37.4;;;17.7;;
85046;SDS011;75377;47.908;7.708;2024-01-15T04:02:09;35.5;;;17.2;;
85046;SDS011;75377;47.908;7.708;2024-01-15T04:07:09;35.8;;;18.0;;
85046;SDS011;75377;47.908;7.708;2024-01-15T04:12:09;36.2;;;18.8;;
85046;SDS011;75377;47.908;7.708;2024-01-15T04:17:09;39.9;;;18.5;;
85046;SDS011;75377;47.908;7.708;2024-01-15T04:22:09;37.4;;;18.6;;
85046;SDS011;75377;47.908;7.708;2024-01-15T04:27:10;35.0;;;18.1;;
85046;SDS011;75377;47.908;7.708;2024-01-15T04:32:09;35.8;;;17.8;;
85046;SDS011;75377;47.908;7.708;2024-01-15T04:37:09;36.3;;;17.9;;
85046;SDS011;75377;47.908;7.708;2024-01-15T04:42:09;36.9;;;18.4;;
85046;SDS011;75377;47.908;7.708;2024-01-15T04:47:09;40.2;;;19.2;;
85046;SDS011;75377;47.908;7.708;2024-01-15T04:52:09;45.6;;;21.8;;
85046;SDS011;75377;47.908;7.708;2024-01-15T04:57:09;46.5;;;21.9;;
85046;SDS011;75377;47.908;7.708;2024-01-15T05:02:09;44.4;;;21.2;;
85046;SDS011;75377;47.908;7.708;2024-01-15T05:07:09;50.3;;;24.5;;
85046;SDS011;75377;47.908;7.708;2024-01-15T05:12:09;46.3;;;22.9;;
85046;SDS011;75377;47.908;7.708;2024-01-15T05:17:09;47.1;;;21.7;;
85046;SDS011;75377;47.908;7.708;2024-01-15T05:22:09;44.2;;;22.8;;
85046;SDS011;75377;47.908;7.708;2024-01-15T05:27:09;51.3;;;24.8;;
85046;SDS011;75377;47.908;7.708;2024-01-15T05:32:09;53.4;;;24.3;;
85046;SDS011;75377;47.908;7.708;2024-01-15T05:37:09;52.1;;;23.4;;
85046;SDS011;75377;47.908;7.708;2024-01-15T05:42:10;47.5;;;22.8;;
85046;SDS011;75377;47.908;7.708;2024-01-15T05:47:09;47.1;;;23.5;;
85046;SDS011;75377;47.908;7.708;2024-01-15T05:52:09;49.0;;;22.9;;
85046;SDS011;75377;47.908;7.708;2024-01-15T05:57:09;45.7;;;21.6;;
85046;SDS011;75377;47.908;7.708;2024-01-15T06:02:09;45.7;;;22.2;;
85046;SDS011;75377;47.908;7.708;2024-01-15T06:07:09;44.9;;;21.8;;
85046;SDS011;75377;47.908;7.708;2024-01-15T06:12:09;44.2;;;21.1;;
85046;SDS011;75377;47.908;7.708;2024-01-15T06:17:09;46.0;;;21.1;;
85046;SDS011;75377;47.908;7.708;2024-01-15T06:22:09;45.8;;;19.9;;
85046;SDS011;75377;47.908;7.708;2024-01-15T06:27:09;39.2;;;19.6;;
85046;SDS011;75377;47.908;7.708;2024-01-15T06:32:09;43.4;;;20.3;;
85046;SDS011;75377;47.908;7.708;2024-01-15T06:37:09;40.3;;;21.6;;
85046;SDS011;75377;47.908;7.708;2024-01-15T06:42:09;40.7;;;20.0;;
85046;SDS011;75377;47.908;7.708;2024-01-15T06:47:09;41.9;;;21.0;;
85046;SDS011;75377;47.908;7.708;2024-01-15T06:52:09;39.8;;;20.0;;
85046;SDS011;75377;47.908;7.708;2024-01-15T06:57:09;39.4;;;21.3;;
85046;SDS011;75377;47.908;7.708;2024-01-15T07:02:09;39.3;;;18.7;;
85046;SDS011;75377;47.908;7.708;2024-01-15T07:07:09;37.4;;;18.8;;
85046;SDS011;75377;47.908;7.708;2024-01-15T07:12:09;36.4;;;17.7;;
85046;SDS011;75377;47.908;7.708;2024-01-15T07:17:09;36.0;;;17.3;;
85046;SDS011;75377;47.908;7.708;2024-01-15T07:22:09;35.3;;;16.4;;
85046;SDS011;75377;47.908;7.708;2024-01-15T07:27:09;32.1;;;17.1;;
85046;SDS011;75377;47.908;7.708;2024-01-15T07:32:09;35.7;;;16.6;;
85046;SDS011;75377;47.908;7.708;2024-01-15T07:37:09;27.6;;;13.2;;
85046;SDS011;75377;47.908;7.708;2024-01-15T07:42:09;26.6;;;13.9;;
85046;SDS011;75377;47.908;7.708;2024-01-15T07:47:09;20.2;;;11.8;;
85046;SDS011;75377;47.908;7.708;2024-01-15T07:52:10;20.1;;;11.2;;
85046;SDS011;75377;47.908;7.708;2024-01-15T07:57:09;20.9;;;11.7;;
85046;SDS011;75377;47.908;7.708;2024-01-15T08:02:09;22.6;;;12.3;;
85046;SDS011;75377;47.908;7.708;2024-01-15T08:07:09;24.9;;;15.2;;
85046;SDS011;75377;47.908;7.708;2024-01-15T08:12:09;24.3;;;12.7;;
85046;SDS011;75377;47.908;7.708;2024-01-15T08:17:09;22.5;;;12.7;;
85046;SDS011;75377;47.908;7.708;2024-01-15T08:22:09;20.0;;;9.4;;
85046;SDS011;75377;47.908;7.708;2024-01-15T08:27:09;15.4;;;9.7;;
85046;SDS011;75377;47.908;7.708;2024-01-15T08:32:09;14.5;;;9.2;;
85046;SDS011;75377;47.908;7.708;2024-01-15T08:37:09;13.5;;;7.6;;
85046;SDS011;75377;47.908;7.708;2024-01-15T08:42:09;10.4;;;7.9;;
85046;SDS011;75377;47.908;7.708;2024-01-15T08:47:09;10.7;;;7.0;;
85046;SDS011;75377;47.908;7.708;2024-01-15T08:52:09;12.1;;;7.7;;
85046;SDS011;75377;47.908;7.708;2024-01-15T08:57:09;29.3;;;15.3;;
85046;SDS011;75377;47.908;7.708;2024-01-15T09:02:09;25.2;;;14.0;;
85046;SDS011;75377;47.908;7.708;2024-01-15T09:07:09;18.8;;;12.0;;
85046;SDS011;75377;47.908;7.708;2024-01-15T09:12:10;21.2;;;11.9;;
85046;SDS011;75377;47.908;7.708;2024-01-15T09:17:09;20.8;;;12.7;;
85046;SDS011;75377;47.908;7.708;2024-01-15T09:22:09;20.5;;;11.7;;
85046;SDS011;75377;47.908;7.708;2024-01-15T09:27:09;20.2;;;11.4;;
85046;SDS011;75377;47.908;7.708;2024-01-15T09:32:09;23.3;;;13.4;;
85046;SDS011;75377;47.908;7.708;2024-01-15T09:37:09;19.6;;;11.7;;
85046;SDS011;75377;47.908;7.708;2024-01-15T09:42:09;19.2;;;11.0;;
85046;SDS011;75377;47.908;7.708;2024-01-15T09:47:09;20.6;;;11.7;;
85046;SDS011;75377;47.908;7.708;2024-01-15T09:52:09;21.3;;;11.9;;
85046;SDS011;75377;47.908;7.708;2024-01-15T09:57:09;21.9;;;12.1;;
85046;SDS011;75377;47.908;7.708;2024-01-15T10:02:09;22.5;;;12.6;;
85046;SDS011;75377;47.908;7.708;2024-01-15T10:07:09;23.0;;;13.6;;
85046;SDS011;75377;47.908;7.708;2024-01-15T10:12:09;23.2;;;13.1;;
85046;SDS011;75377;47.908;7.708;2024-01-15T10:17:12;28.3;;;16.8;;
85046;SDS011;75377;47.908;7.708;2024-01-15T10:22:09;28.6;;;16.5;;
85046;SDS011;75377;47.908;7.708;2024-01-15T10:27:09;27.3;;;17.4;;
85046;SDS011;75377;47.908;7.708;2024-01-15T10:32:11;27.2;;;14.1;;
85046;SDS011;75377;47.908;7.708;2024-01-15T10:37:09;22.7;;;14.2;;
85046;SDS011;75377;47.908;7.708;2024-01-15T10:42:09;25.5;;;13.1;;
85046;SDS011;75377;47.908;7.708;2024-01-15T10:47:09;26.6;;;17.5;;
85046;SDS011;75377;47.908;7.708;2024-01-15T10:52:09;24.5;;;13.3;;
85046;SDS011;75377;47.908;7.708;2024-01-15T10:57:09;31.6;;;16.7;;
85046;SDS011;75377;47.908;7.708;2024-01-15T11:02:09;32.5;;;16.5;;
85046;SDS011;75377;47.908;7.708;2024-01-15T11:07:09;27.3;;;15.8;;
85046;SDS011;75377;47.908;7.708;2024-01-15T11:12:10;34.2;;;19.2;;
85046;SDS011;75377;47.908;7.708;2024-01-15T11:17:09;30.6;;;16.2;;
85046;SDS011;75377;47.908;7.708;2024-01-15T11:22:09;29.8;;;17.3;;
85046;SDS011;75377;47.908;7.708;2024-01-15T11:27:09;28.2;;;16.9;;
85046;SDS011;75377;47.908;7.708;2024-01-15T11:32:09;26.3;;;17.7;;
85046;SDS011;75377;47.908;7.708;2024-01-15T11:37:09;29.6;;;17.0;;
85046;SDS011;75377;47.908;7.708;2024-01-15T11:42:09;28.8;;;16.7;;
85046;SDS011;75377;47.908;7.708;2024-01-15T11:47:09;30.7;;;18.0;;
85046;SDS011;75377;47.908;7.708;2024-01-15T11:52:09;30.4;;;18.3;;
85046;SDS011;75377;47.908;7.708;2024-01-15T11:57:10;29.9;;;15.9;;
85046;SDS011;75377;47.908;7.708;2024-01-15T12:02:09;28.7;;;16.6;;
85046;SDS011;75377;47.908;7.708;2024-01-15T12:07:09;28.7;;;17.0;;
85046;SDS011;75377;47.908;7.708;2024-01-15T12:12:09;28.5;;;15.9;;
85046;SDS011;75377;47.908;7.708;2024-01-15T12:17:09;29.2;;;16.1;;
85046;SDS011;75377;47.908;7.708;2024-01-15T12:22:10;28.8;;;17.4;;
85046;SDS011;75377;47.908;7.708;2024-01-15T12:27:09;26.4;;;15.9;;
85046;SDS011;75377;47.908;7.708;2024-01-15T12:32:09;28.6;;;16.2;;
85046;SDS011;75377;47.908;7.708;2024-01-15T12:37:10;22.4;;;14.4;;
85046;SDS011;75377;47.908;7.708;2024-01-15T12:42:09;27.3;;;14.9;;
85046;SDS011;75377;47.908;7.708;2024-01-15T12:47:09;25.2;;;15.7;;
85046;SDS011;75377;47.908;7.708;2024-01-15T12:52:09;25.2;;;16.2;;
85046;SDS011;75377;47.908;7.708;2024-01-15T12:57:09;26.0;;;15.5;;
85046;SDS011;75377;47.908;7.708;2024-01-15T13:02:09;29.0;;;16.9;;
85046;SDS011;75377;47.908;7.708;2024-01-15T13:07:09;40.4;;;21.6;;
85046;SDS011;75377;47.908;7.708;2024-01-15T13:12:09;24.8;;;14.9;;
85046;SDS011;75377;47.908;7.708;2024-01-15T13:17:09;29.6;;;16.5;;
85046;SDS011;75377;47.908;7.708;2024-01-15T13:22:09;26.5;;;15.6;;
85046;SDS011;75377;47.908;7.708;2024-01-15T13:27:09;27.9;;;16.7;;
85046;SDS011;75377;47.908;7.708;2024-01-15T13:32:09;26.5;;;14.1;;
85046;SDS011;75377;47.908;7.708;2024-01-15T13:37:09;25.9;;;14.2;;
85046;SDS011;75377;47.908;7.708;2024-01-15T13:42:10;27.2;;;16.4;;
85046;SDS011;75377;47.908;7.708;2024-01-15T13:47:09;23.9;;;14.4;;
85046;SDS011;75377;47.908;7.708;2024-01-15T13:52:09;27.6;;;15.7;;
85046;SDS011;75377;47.908;7.708;2024-01-15T13:57:09;23.5;;;14.4;;
85046;SDS011;75377;47.908;7.708;2024-01-15T14:02:09;29.1;;;17.0;;
85046;SDS011;75377;47.908;7.708;2024-01-15T14:07:09;29.9;;;17.3;;
85046;SDS011;75377;47.908;7.708;2024-01-15T14:12:09;29.9;;;16.9;;
85046;SDS011;75377;47.908;7.708;2024-01-15T14:17:09;28.0;;;15.8;;
85046;SDS011;75377;47.908;7.708;2024-01-15T14:22:09;30.5;;;18.2;;
85046;SDS011;75377;47.908;7.708;2024-01-15T14:27:09;30.2;;;16.7;;
85046;SDS011;75377;47.908;7.708;2024-01-15T14:32:09;36.4;;;18.7;;
85046;SDS011;75377;47.908;7.708;2024-01-15T14:37:09;30.5;;;17.3;;
85046;SDS011;75377;47.908;7.708;2024-01-15T14:42:09;31.2;;;18.3;;
85046;SDS011;75377;47.908;7.708;2024-01-15T14:47:09;35.3;;;19.6;;
85046;SDS011;75377;47.908;7.708;2024-01-15T14:52:10;42.2;;;22.1;;
85046;SDS011;75377;47.908;7.708;2024-01-15T14:57:09;34.6;;;20.1;;
85046;SDS011;75377;47.908;7.708;2024-01-15T15:02:09;32.3;;;17.8;;
85046;SDS011;75377;47.908;7.708;2024-01-15T15:07:09;28.0;;;16.8;;
85046;SDS011;75377;47.908;7.708;2024-01-15T15:12:09;32.4;;;19.2;;
85046;SDS011;75377;47.908;7.708;2024-01-15T15:17:09;32.5;;;19.2;;
85046;SDS011;75377;47.908;7.708;2024-01-15T15:22:09;34.2;;;18.6;;
85046;SDS011;75377;47.908;7.708;2024-01-15T15:27:09;35.3;;;19.8;;
85046;SDS011;75377;47.908;7.708;2024-01-15T15:32:09;35.8;;;20.9;;
85046;SDS011;75377;47.908;7.708;2024-01-15T15:37:09;32.9;;;19.2;;
85046;SDS011;75377;47.908;7.708;2024-01-15T15:42:09;34.4;;;18.7;;
85046;SDS011;75377;47.908;7.708;2024-01-15T15:47:09;37.8;;;19.6;;
85046;SDS011;75377;47.908;7.708;2024-01-15T15:52:09;34.0;;;19.4;;
85046;SDS011;75377;47.908;7.708;2024-01-15T15:57:10;34.9;;;19.6;;
85046;SDS011;75377;47.908;7.708;2024-01-15T16:02:09;36.6;;;20.1;;
85046;SDS011;75377;47.908;7.708;2024-01-15T16:07:09;35.0;;;21.6;;
85046;SDS011;75377;47.908;7.708;2024-01-15T16:12:09;34.9;;;19.0;;
85046;SDS011;75377;47.908;7.708;2024-01-15T16:17:09;34.2;;;18.8;;
85046;SDS011;75377;47.908;7.708;2024-01-15T16:22:10;28.2;;;16.9;;
85046;SDS011;75377;47.908;7.708;2024-01-15T16:27:09;34.4;;;18.8;;
85046;SDS011;75377;47.908;7.708;2024-01-15T16:32:09;34.4;;;18.8;;
85046;SDS011;75377;47.908;7.708;2024-01-15T16:37:10;34.4;;;18.8;;
85046;SDS011;75377;47.908;7.708;2024-01-15T16:42:09;34.4;;;18.8;;
85046;SDS011;75377;47.908;7.708;2024-01-15T16:47:09;34.4;;;18.8;;
85046;SDS011;75377;47.908;7.708;2024-01-15T16:52:09;34.4;;;18.8;;
85046;SDS011;75377;47.908;7.708;2024-01-15T16:57:09;34.4;;;18.8;;
85046;SDS011;75377;47.908;7.708;2024-01-15T17:02:22;34.4;;;18.8;;
85046;SDS011;75377;47.908;7.708;2024-01-15T17:07:09;34.4;;;18.8;;
85046;SDS011;75377;47.908;7.708;2024-01-15T17:12:09;34.4;;;18.8;;
85046;SDS011;75377;47.908;7.708;2024-01-15T17:17:12;41.1;;;23.5;;
85046;SDS011;75377;47.908;7.708;2024-01-15T17:22:09;39.0;;;22.5;;
85046;SDS011;75377;47.908;7.708;2024-01-15T17:27:09;36.2;;;22.5;;
85046;SDS011;75377;47.908;7.708;2024-01-15T17:32:09;37.0;;;23.1;;
85046;SDS011;75377;47.908;7.708;2024-01-15T17:37:09;45.2;;;25.9;;
85046;SDS011;75377;47.908;7.708;2024-01-15T17:42:09;42.9;;;25.6;;
85046;SDS011;75377;47.908;7.708;2024-01-15T17:47:09;38.3;;;21.9;;
85046;SDS011;75377;47.908;7.708;2024-01-15T17:52:09;36.7;;;22.2;;
85046;SDS011;75377;47.908;7.708;2024-01-15T17:57:09;39.3;;;21.9;;
85046;SDS011;75377;47.908;7.708;2024-01-15T18:02:09;37.5;;;23.9;;
85046;SDS011;75377;47.908;7.708;2024-01-15T18:07:09;38.4;;;23.2;;
85046;SDS011;75377;47.908;7.708;2024-01-15T18:12:10;96.5;;;51.8;;
85046;SDS011;75377;47.908;7.708;2024-01-15T18:17:09;47.1;;;26.4;;
85046;SDS011;75377;47.908;7.708;2024-01-15T18:22:09;41.8;;;26.1;;
85046;SDS011;75377;47.908;7.708;2024-01-15T18:27:09;44.1;;;26.0;;
85046;SDS011;75377;47.908;7.708;2024-01-15T18:32:09;38.4;;;23.2;;
85046;SDS011;75377;47.908;7.708;2024-01-15T18:37:09;51.2;;;31.4;;
85046;SDS011;75377;47.908;7.708;2024-01-15T18:42:09;44.8;;;27.4;;
85046;SDS011;75377;47.908;7.708;2024-01-15T18:47:09;57.7;;;37.6;;
85046;SDS011;75377;47.908;7.708;2024-01-15T18:52:09;33.9;;;22.6;;
85046;SDS011;75377;47.908;7.708;2024-01-15T18:57:09;35.3;;;23.7;;
85046;SDS011;75377;47.908;7.708;2024-01-15T19:02:09;34.8;;;19.4;;
85046;SDS011;75377;47.908;7.708;2024-01-15T19:07:09;42.0;;;26.0;;
85046;SDS011;75377;47.908;7.708;2024-01-15T19:12:09;34.4;;;21.0;;
85046;SDS011;75377;47.908;7.708;2024-01-15T19:17:09;37.7;;;22.5;;
85046;SDS011;75377;47.908;7.708;2024-01-15T19:22:10;35.1;;;19.4;;
85046;SDS011;75377;47.908;7.708;2024-01-15T19:27:14;37.4;;;20.5;;
85046;SDS011;75377;47.908;7.708;2024-01-15T19:32:09;33.1;;;21.7;;
85046;SDS011;75377;47.908;7.708;2024-01-15T19:37:10;46.8;;;28.1;;
85046;SDS011;75377;47.908;7.708;2024-01-15T19:42:09;34.8;;;21.2;;
85046;SDS011;75377;47.908;7.708;2024-01-15T19:47:09;30.6;;;19.5;;
85046;SDS011;75377;47.908;7.708;2024-01-15T19:52:09;32.4;;;20.5;;
85046;SDS011;75377;47.908;7.708;2024-01-15T19:57:09;128.5;;;68.3;;
85046;SDS011;75377;47.908;7.708;2024-01-15T20:02:09;59.4;;;36.7;;
85046;SDS011;75377;47.908;7.708;2024-01-15T20:07:09;38.4;;;24.3;;
85046;SDS011;75377;47.908;7.708;2024-01-15T20:12:09;41.2;;;24.8;;
85046;SDS011;75377;47.908;7.708;2024-01-15T20:17:09;41.3;;;24.9;;
85046;SDS011;75377;47.908;7.708;2024-01-15T20:22:09;42.8;;;25.4;;
85046;SDS011;75377;47.908;7.708;2024-01-15T20:27:09;38.1;;;22.8;;
85046;SDS011;75377;47.908;7.708;2024-01-15T20:32:09;38.5;;;24.9;;
85046;SDS011;75377;47.908;7.708;2024-01-15T20:37:09;41.1;;;28.7;;
85046;SDS011;75377;47.908;7.708;2024-01-15T20:42:09;32.8;;;21.6;;
85046;SDS011;75377;47.908;7.708;2024-01-15T20:47:09;26.6;;;17.3;;
85046;SDS011;75377;47.908;7.708;2024-01-15T20:52:09;29.1;;;18.2;;
85046;SDS011;75377;47.908;7.708;2024-01-15T20:57:09;27.4;;;17.9;;
85046;SDS011;75377;47.908;7.708;2024-01-15T21:02:09;27.1;;;17.8;;
85046;SDS011;75377;47.908;7.708;2024-01-15T21:07:09;27.5;;;17.4;;
85046;SDS011;75377;47.908;7.708;2024-01-15T21:12:09;101.0;;;46.9;;
85046;SDS011;75377;47.908;7.708;2024-01-15T21:17:09;90.4;;;45.5;;
85046;SDS011;75377;47.908;7.708;2024-01-15T21:22:09;80.5;;;45.9;;
85046;SDS011;75377;47.908;7.708;2024-01-15T21:27:09;43.9;;;26.4;;
85046;SDS011;75377;47.908;7.708;2024-01-15T21:32:09;34.1;;;21.4;;
85046;SDS011;75377;47.908;7.708;2024-01-15T21:37:10;23.3;;;14.2;;
85046;SDS011;75377;47.908;7.708;2024-01-15T21:42:09;31.7;;;20.9;;
85046;SDS011;75377;47.908;7.708;2024-01-15T21:47:09;29.0;;;17.1;;
85046;SDS011;75377;47.908;7.708;2024-01-15T21:52:10;27.4;;;17.4;;
85046;SDS011;75377;47.908;7.708;2024-01-15T21:57:09;22.9;;;15.6;;
85046;SDS011;75377;47.908;7.708;2024-01-15T22:02:09;22.9;;;15.6;;
85046;SDS011;75377;47.908;7.708;2024-01-15T22:07:09;16.5;;;10.8;;
85046;SDS011;75377;47.908;7.708;2024-01-15T22:12:09;19.3;;;11.2;;
85046;SDS011;75377;47.908;7.708;2024-01-15T22:17:09;19.3;;;10.9;;
85046;SDS011;75377;47.908;7.708;2024-01-15T22:22:09;14.0;;;9.3;;
85046;SDS011;75377;47.908;7.708;2024-01-15T22:27:09;15.9;;;9.8;;
85046;SDS011;75377;47.908;7.708;2024-01-15T22:32:09;16.2;;;8.8;;
85046;SDS011;75377;47.908;7.708;2024-01-15T22:37:09;13.9;;;8.6;;
85046;SDS011;75377;47.908;7.708;2024-01-15T22:42:09;13.9;;;8.8;;
85046;SDS011;75377;47.908;7.708;2024-01-15T22:47:09;12.2;;;8.3;;
85046;SDS011;75377;47.908;7.708;2024-01-15T22:52:09;13.3;;;8.5;;
85046;SDS011;75377;47.908;7.708;2024-01-15T22:57:09;10.9;;;7.8;;
85046;SDS011;75377;47.908;7.708;2024-01-15T23:02:09;10.9;;;7.5;;
85046;SDS011;75377;47.908;7.708;2024-01-15T23:07:09;13.8;;;8.2;;
85046;SDS011;75377;47.908;7.708;2024-01-15T23:12:09;14.6;;;8.6;;
85046;SDS011;75377;47.908;7.708;2024-01-15T23:17:09;15.6;;;8.8;;
85046;SDS011;75377;47.908;7.708;2024-01-15T23:22:09;11.5;;;7.6;;
85046;SDS011;75377;47.908;7.708;2024-01-15T23:27:09;14.2;;;8.7;;
85046;SDS011;75377;47.908;7.708;2024-01-15T23:32:09;14.2;;;8.7;;
85046;SDS011;75377;47.908;7.708;2024-01-15T23:37:09;14.2;;;8.7;;
85046;SDS011;75377;47.908;7.708;2024-01-15T23:42:09;9.4;;;7.0;;
85046;SDS011;75377;47.908;7.708;2024-01-15T23:47:09;12.0;;;8.0;;
85046;SDS011;75377;47.908;7.708;2024-01-15T23:52:10;11.3;;;7.0;;
85046;SDS011;75377;47.908;7.708;2024-01-15T23:57:09;9.8;;;7.1;;
